Kasterlee, Belgium
Current Conditions -  °F | °C
As of 4:25 PM on Sunday 21 Dec 2014 (Local Time) from EBDT Reporting Station
Broken Clouds Broken Clouds  
Wind Chill: 39°   Ceiling: 1200
Heat Index: 45°   Visibility: 6mi
Dew Point: 43°   Wind: 10mph
Humidity: 93%   Direction: 220°SW
Pressure: 30.3"   Gusts: NA
Location:  51.24°N, 4.97°E
Report Text: EBDT 211525Z AUTO 22009KT 9999 FEW009/// BKN012/// BKN017/// 07/06 Q1026 GRN
Loading
Personal Weather Stations






























Interactive Weather Map New forecast layout! Learn more

10-Day Weather Forecast

Advertisements
Track Severe Weather on mobile